Time;durP1;ratioP1;P1;durP2;ratioP2;P2;SDS_P1;SDS_P2;PMS_P1;PMS_P2;Temp;Humidity;BMP_temperature;BMP_pressure;BME280_temperature;BME280_humidity;BME280_pressure;Samples;Min_cycle;Max_cycle;Signal;HPM_P1;HPM_P2
2022/09/03 00:01:33;;;;;;;12.35;9.30;;;17.80;74.80;;;;;;5074224;28;20064;-12
2022/09/03 00:04:05;;;;;;;15.00;10.80;;;17.80;74.80;;;;;;5073865;28;20055;-12
2022/09/03 00:06:45;;;;;;;13.70;10.48;;;17.80;74.70;;;;;;5073758;28;20063;-12
2022/09/03 00:09:50;;;;;;;12.75;10.95;;;17.80;74.60;;;;;;5073246;28;20025;-11
2022/09/03 00:12:26;;;;;;;14.20;12.13;;;17.80;75.10;;;;;;5013776;28;20073;-12
2022/09/03 00:14:59;;;;;;;18.27;14.40;;;17.80;74.70;;;;;;5013723;28;20038;-12
2022/09/03 00:17:35;;;;;;;12.40;9.85;;;17.80;74.60;;;;;;5013688;28;20028;-11
2022/09/03 00:20:17;;;;;;;15.98;14.02;;;17.90;75.10;;;;;;5014012;28;20588;-13
2022/09/03 00:22:55;;;;;;;15.95;12.60;;;17.80;75.50;;;;;;5013612;28;20030;-12
2022/09/03 00:25:41;;;;;;;13.50;10.10;;;17.80;75.10;;;;;;5022348;28;20042;-11
2022/09/03 00:28:17;;;;;;;12.57;10.80;;;17.80;75.50;;;;;;5033463;28;20025;-11
2022/09/03 00:30:54;;;;;;;17.67;12.98;;;17.80;75.00;;;;;;5033266;28;20029;-11
2022/09/03 00:33:25;;;;;;;12.23;9.95;;;17.80;75.20;;;;;;5033470;28;20041;-12
2022/09/03 00:36:19;;;;;;;17.80;14.18;;;17.70;75.10;;;;;;5033135;28;20108;-12
2022/09/03 00:38:45;;;;;;;;;;;17.70;75.60;;;;;;5032614;28;20041;-12
2022/09/03 00:41:32;;;;;;;14.27;9.80;;;17.60;75.70;;;;;;5032792;28;19927;-11
2022/09/03 00:44:04;;;;;;;16.48;13.32;;;17.50;75.30;;;;;;5033383;28;20076;-12
2022/09/03 00:46:59;;;;;;;13.57;10.90;;;17.50;75.50;;;;;;5051983;28;20599;-12
2022/09/03 00:49:53;;;;;;;12.38;9.60;;;17.50;75.50;;;;;;5075105;28;20060;-12
2022/09/03 00:53:03;;;;;;;14.93;12.48;;;17.50;75.60;;;;;;5074770;28;20028;-12
2022/09/03 00:55:46;;;;;;;14.57;10.60;;;17.40;75.80;;;;;;5073592;28;20032;-12
2022/09/03 00:58:35;;;;;;;18.52;13.73;;;17.40;76.10;;;;;;5074580;28;20036;-11
2022/09/03 01:01:14;;;;;;;12.82;8.32;;;17.40;76.30;;;;;;5074428;28;20139;-12
2022/09/03 01:03:50;;;;;;;15.35;13.57;;;17.40;76.00;;;;;;5074598;28;20036;-12
2022/09/03 01:06:31;;;;;;;16.75;13.20;;;17.40;75.90;;;;;;5074468;28;20017;-12
2022/09/03 01:09:33;;;;;;;16.15;12.88;;;17.40;76.60;;;;;;5074150;28;20027;-12
2022/09/03 01:12:32;;;;;;;13.45;11.77;;;17.30;76.30;;;;;;5074333;28;20155;-11
2022/09/03 01:15:25;;;;;;;9.52;7.65;;;17.40;76.10;;;;;;5071987;28;20020;-12
2022/09/03 01:18:05;;;;;;;12.90;9.85;;;17.30;75.90;;;;;;5072244;28;20111;-12
2022/09/03 01:20:39;;;;;;;8.88;7.15;;;17.40;75.70;;;;;;5072122;28;20063;-11
2022/09/03 01:23:23;;;;;;;9.98;7.93;;;17.30;75.60;;;;;;5071713;28;20074;-12
2022/09/03 01:26:10;;;;;;;7.93;6.57;;;17.30;75.70;;;;;;5072071;28;20032;-11
2022/09/03 01:29:00;;;;;;;8.45;6.03;;;17.30;75.70;;;;;;5071927;28;20448;-11
2022/09/03 01:31:35;;;;;;;8.80;6.68;;;17.30;75.60;;;;;;5071987;28;20040;-12
2022/09/03 01:34:19;;;;;;;8.88;7.30;;;17.30;75.30;;;;;;5071850;28;20024;-12
2022/09/03 01:36:52;;;;;;;9.65;6.70;;;17.30;75.30;;;;;;5071776;28;20036;-11
2022/09/03 01:39:45;;;;;;;8.80;6.63;;;17.30;75.20;;;;;;5072006;28;20035;-12
2022/09/03 01:42:26;;;;;;;10.30;8.30;;;17.30;75.20;;;;;;5071824;28;20060;-12
2022/09/03 01:45:08;;;;;;;11.63;7.90;;;17.30;76.00;;;;;;5071649;28;20036;-13
2022/09/03 01:47:54;;;;;;;11.02;8.00;;;17.30;76.10;;;;;;5071626;28;20107;-11
2022/09/03 01:50:39;;;;;;;8.85;6.55;;;17.20;76.00;;;;;;5072195;28;20036;-13
2022/09/03 01:53:27;;;;;;;11.88;7.13;;;17.10;75.70;;;;;;5073242;28;20480;-11
2022/09/03 01:56:20;;;;;;;11.88;7.45;;;17.10;75.70;;;;;;5073898;28;20082;-13
2022/09/03 01:59:06;;;;;;;8.02;6.82;;;17.00;75.90;;;;;;5073543;28;20032;-14
2022/09/03 02:01:42;;;;;;;9.13;6.30;;;17.00;75.80;;;;;;5073642;28;20043;-12
2022/09/03 02:04:23;;;;;;;8.15;6.53;;;17.00;75.80;;;;;;5073636;28;20074;-12
2022/09/03 02:06:51;;;;;;;7.43;6.57;;;17.00;76.00;;;;;;5073241;28;20029;-12
2022/09/03 02:09:19;;;;;;;8.75;6.57;;;17.00;76.10;;;;;;5073546;28;20021;-12
2022/09/03 02:11:51;;;;;;;10.45;8.52;;;17.00;76.30;;;;;;5073574;28;20025;-12
2022/09/03 02:14:17;;;;;;;9.35;7.47;;;16.90;76.90;;;;;;5073271;28;20039;-12
2022/09/03 02:16:43;;;;;;;10.75;8.18;;;16.90;77.10;;;;;;5073383;28;20033;-13
2022/09/03 02:19:14;;;;;;;8.10;5.88;;;16.90;77.60;;;;;;5073078;28;20055;-12
2022/09/03 02:21:51;;;;;;;10.05;7.93;;;16.80;77.00;;;;;;5073146;28;20495;-12
2022/09/03 02:24:18;;;;;;;8.43;6.32;;;16.80;77.00;;;;;;5073196;28;20099;-12
2022/09/03 02:26:45;;;;;;;10.68;8.02;;;16.80;76.90;;;;;;5073556;28;20043;-12
2022/09/03 02:29:14;;;;;;;10.27;8.52;;;16.70;77.00;;;;;;5073182;28;20036;-12
2022/09/03 02:31:40;;;;;;;13.48;10.40;;;16.70;77.20;;;;;;5073358;28;20027;-13
2022/09/03 02:34:06;;;;;;;9.52;7.65;;;16.60;77.20;;;;;;5073366;28;20028;-12
2022/09/03 02:36:38;;;;;;;9.35;7.10;;;16.50;77.20;;;;;;5073297;28;20021;-12
2022/09/03 02:39:05;;;;;;;9.43;6.55;;;16.50;77.20;;;;;;5073068;28;20035;-12
2022/09/03 02:41:32;;;;;;;12.18;8.25;;;16.50;77.30;;;;;;5073210;28;20377;-12
2022/09/03 02:44:02;;;;;;;10.20;6.78;;;16.40;77.30;;;;;;5071638;28;20472;-13
2022/09/03 02:46:57;;;;;;;7.80;6.20;;;16.40;77.40;;;;;;5072982;28;20028;-13
2022/09/03 02:49:23;;;;;;;8.85;6.43;;;16.40;77.50;;;;;;5072631;28;20045;-13
2022/09/03 02:51:49;;;;;;;8.38;6.28;;;16.40;77.40;;;;;;5073204;28;20024;-12
2022/09/03 02:54:14;;;;;;;7.97;5.38;;;16.40;77.50;;;;;;5073088;28;20376;-12
2022/09/03 02:56:40;;;;;;;5.68;4.65;;;16.40;77.30;;;;;;5072932;28;20062;-12
2022/09/03 02:59:08;;;;;;;7.22;5.53;;;16.40;77.40;;;;;;5072725;28;20536;-13
2022/09/03 03:01:35;;;;;;;9.18;5.90;;;16.30;77.10;;;;;;5071814;28;20039;-12
2022/09/03 03:04:02;;;;;;;7.68;6.53;;;16.40;77.00;;;;;;5077006;28;20029;-12
2022/09/03 03:06:28;;;;;;;12.05;6.00;;;16.40;77.30;;;;;;5075589;28;20024;-13
2022/09/03 03:08:55;;;;;;;11.35;6.32;;;16.40;77.40;;;;;;5076711;28;20484;-12
2022/09/03 03:11:21;;;;;;;8.25;5.88;;;16.40;77.10;;;;;;5076524;28;20032;-12
2022/09/03 03:13:48;;;;;;;7.88;5.72;;;16.40;77.00;;;;;;5076576;28;20122;-12
2022/09/03 03:16:15;;;;;;;6.88;5.82;;;16.40;77.00;;;;;;5076551;28;20056;-13
2022/09/03 03:18:45;;;;;;;8.70;5.82;;;16.40;77.00;;;;;;5076842;28;20052;-12
2022/09/03 03:21:14;;;;;;;6.40;5.70;;;16.30;77.00;;;;;;5076230;28;20516;-12
2022/09/03 03:23:39;;;;;;;8.10;5.32;;;16.30;77.10;;;;;;5076706;28;20029;-14
2022/09/03 03:26:12;;;;;;;7.28;5.53;;;16.30;77.10;;;;;;5075115;28;20077;-12
2022/09/03 03:28:38;;;;;;;9.48;6.35;;;16.30;77.20;;;;;;5076720;28;20016;-13
2022/09/03 03:31:07;;;;;;;12.15;8.50;;;16.30;77.60;;;;;;5076333;28;20028;-12
2022/09/03 03:33:34;;;;;;;9.38;6.90;;;16.20;77.80;;;;;;5076905;28;20028;-13
2022/09/03 03:36:09;;;;;;;11.82;8.15;;;16.20;77.80;;;;;;5076165;28;20078;-13
2022/09/03 03:38:35;;;;;;;11.18;7.28;;;16.20;77.80;;;;;;5076298;28;20103;-12
2022/09/03 03:41:12;;;;;;;8.93;5.95;;;16.10;77.90;;;;;;5076100;28;20037;-12
2022/09/03 03:43:38;;;;;;;7.18;5.68;;;16.10;77.90;;;;;;5076272;28;20400;-12
2022/09/03 03:46:04;;;;;;;8.38;6.15;;;16.10;77.80;;;;;;5075910;28;20028;-12
2022/09/03 03:48:31;;;;;;;7.53;5.70;;;16.00;77.80;;;;;;5074978;28;20032;-13
2022/09/03 03:51:03;;;;;;;11.65;8.50;;;16.00;77.90;;;;;;5075675;28;20036;-13
2022/09/03 03:53:30;;;;;;;10.35;6.20;;;16.00;78.20;;;;;;5075681;28;20021;-13
2022/09/03 03:55:58;;;;;;;7.10;5.00;;;16.00;78.40;;;;;;5076163;28;20035;-13
2022/09/03 03:58:25;;;;;;;5.75;4.85;;;16.00;78.20;;;;;;5075705;28;20423;-12
2022/09/03 04:00:51;;;;;;;8.63;6.10;;;16.00;78.20;;;;;;5075441;28;20123;-12
2022/09/03 04:03:17;;;;;;;8.40;6.82;;;16.00;78.30;;;;;;5075886;28;20082;-12
2022/09/03 04:05:53;;;;;;;8.88;6.50;;;16.00;78.50;;;;;;5075869;28;20487;-13
2022/09/03 04:08:19;;;;;;;7.90;5.80;;;16.00;78.40;;;;;;5076171;28;20017;-12
2022/09/03 04:10:47;;;;;;;7.68;6.07;;;16.00;78.40;;;;;;5076176;28;20017;-12
2022/09/03 04:13:14;;;;;;;6.65;5.32;;;15.90;78.70;;;;;;5074406;28;20028;-13
2022/09/03 04:15:41;;;;;;;12.43;7.82;;;15.90;78.70;;;;;;5075421;28;20029;-12
2022/09/03 04:18:07;;;;;;;9.20;6.82;;;15.90;78.80;;;;;;5075730;28;20074;-12
2022/09/03 04:20:35;;;;;;;8.20;6.57;;;15.90;79.00;;;;;;5075356;28;20434;-12
2022/09/03 04:23:01;;;;;;;8.00;6.28;;;15.90;78.80;;;;;;5075687;28;20025;-12
2022/09/03 04:25:27;;;;;;;8.10;6.75;;;15.90;78.70;;;;;;5075274;28;20031;-12
2022/09/03 04:27:54;;;;;;;11.40;8.68;;;15.90;78.80;;;;;;5075263;28;20021;-11
2022/09/03 04:30:20;;;;;;;10.30;7.10;;;15.90;79.20;;;;;;5075172;28;20119;-12
2022/09/03 04:32:52;;;;;;;7.47;5.85;;;15.90;79.30;;;;;;5075070;28;20500;-13
2022/09/03 04:35:22;;;;;;;9.13;6.30;;;15.90;79.20;;;;;;5075410;28;20021;-13
2022/09/03 04:37:48;;;;;;;9.65;7.25;;;16.00;79.10;;;;;;5075352;28;20483;-12
2022/09/03 04:40:15;;;;;;;7.63;5.72;;;16.00;79.30;;;;;;5074860;28;20032;-12
2022/09/03 04:42:40;;;;;;;9.77;7.60;;;15.90;78.90;;;;;;5074855;28;20031;-13
2022/09/03 04:45:08;;;;;;;8.55;6.38;;;16.00;79.20;;;;;;5074953;28;20025;-12
2022/09/03 04:47:36;;;;;;;9.82;7.88;;;15.90;79.10;;;;;;5075206;28;20025;-12
2022/09/03 04:50:05;;;;;;;14.35;8.88;;;16.00;78.90;;;;;;5075197;28;20419;-12
2022/09/03 04:52:31;;;;;;;9.90;7.55;;;16.00;79.00;;;;;;5075050;28;20025;-12
2022/09/03 04:54:57;;;;;;;10.80;8.90;;;16.00;79.10;;;;;;5074453;28;20037;-12
2022/09/03 04:57:23;;;;;;;10.02;7.88;;;16.00;79.10;;;;;;5074629;28;20086;-12
2022/09/03 04:59:49;;;;;;;10.75;7.90;;;16.00;79.30;;;;;;5074730;28;20056;-12
2022/09/03 05:02:16;;;;;;;11.35;7.95;;;16.10;79.30;;;;;;5074611;28;20404;-12
2022/09/03 05:04:42;;;;;;;11.20;7.78;;;16.20;79.30;;;;;;5074852;28;20020;-13
2022/09/03 05:07:08;;;;;;;13.50;8.20;;;16.20;79.10;;;;;;5074581;28;20100;-12
2022/09/03 05:09:34;;;;;;;12.13;8.90;;;16.30;79.30;;;;;;5074318;28;20024;-12
2022/09/03 05:12:00;;;;;;;9.45;7.13;;;16.40;78.90;;;;;;5074551;28;20028;-13
2022/09/03 05:14:25;;;;;;;11.07;7.40;;;16.50;78.60;;;;;;5074523;28;20024;-12
2022/09/03 05:16:52;;;;;;;10.48;8.52;;;16.60;78.40;;;;;;5074175;28;20040;-12
2022/09/03 05:19:18;;;;;;;8.60;6.10;;;16.70;78.50;;;;;;5074143;28;20480;-12
2022/09/03 05:21:44;;;;;;;6.90;5.43;;;16.80;78.30;;;;;;5074691;28;20060;-12
2022/09/03 05:24:10;;;;;;;9.27;7.25;;;16.90;78.10;;;;;;5074292;28;20523;-12
2022/09/03 05:26:38;;;;;;;10.40;7.65;;;16.90;77.80;;;;;;5073981;28;20024;-11
2022/09/03 05:29:06;;;;;;;11.05;6.95;;;17.00;77.30;;;;;;5073615;28;20521;-13
2022/09/03 05:31:35;;;;;;;11.70;8.85;;;17.20;77.10;;;;;;5073938;28;20044;-12
2022/09/03 05:34:03;;;;;;;10.27;7.50;;;17.30;77.00;;;;;;5074204;28;20146;-13
2022/09/03 05:36:36;;;;;;;12.40;8.30;;;17.40;76.80;;;;;;5074043;28;20376;-13
2022/09/03 05:39:04;;;;;;;11.38;7.47;;;17.50;76.70;;;;;;5073540;28;20024;-13
2022/09/03 05:41:32;;;;;;;8.57;7.15;;;17.60;76.50;;;;;;5073741;28;20493;-13
2022/09/03 05:43:59;;;;;;;9.73;6.57;;;17.70;76.20;;;;;;5074095;28;20103;-13
2022/09/03 05:46:32;;;;;;;11.02;6.18;;;17.90;76.00;;;;;;5073029;28;20024;-13
2022/09/03 05:49:03;;;;;;;10.90;6.40;;;17.90;75.70;;;;;;5073649;28;20016;-12
2022/09/03 05:51:30;;;;;;;8.52;6.22;;;18.00;75.50;;;;;;5073916;28;20098;-12
2022/09/03 05:53:57;;;;;;;11.48;7.60;;;18.10;75.10;;;;;;5073441;28;20400;-13
2022/09/03 05:56:25;;;;;;;9.05;6.40;;;18.20;74.80;;;;;;5073800;28;20516;-12
2022/09/03 05:58:53;;;;;;;9.73;6.65;;;18.40;74.40;;;;;;5073359;28;20052;-12
2022/09/03 06:01:25;;;;;;;7.88;6.15;;;18.40;74.10;;;;;;5073739;28;20030;-13
2022/09/03 06:04:00;;;;;;;9.57;6.45;;;18.60;73.80;;;;;;5073760;28;20020;-13
2022/09/03 06:06:29;;;;;;;8.85;6.05;;;18.70;73.30;;;;;;5073402;28;20123;-12
2022/09/03 06:08:57;;;;;;;7.75;5.63;;;18.90;73.50;;;;;;5073424;28;20020;-12
2022/09/03 06:11:26;;;;;;;9.25;6.55;;;19.10;73.30;;;;;;5073931;28;20029;-11
2022/09/03 06:13:55;;;;;;;8.18;6.43;;;19.30;73.10;;;;;;5073547;28;20024;-12
2022/09/03 06:16:22;;;;;;;10.27;6.53;;;19.50;70.90;;;;;;5073219;28;20020;-12
2022/09/03 06:18:48;;;;;;;7.35;5.50;;;19.60;71.00;;;;;;5073056;28;20447;-12
2022/09/03 06:21:14;;;;;;;7.43;5.03;;;19.70;71.10;;;;;;5073067;28;20055;-11
2022/09/03 06:23:41;;;;;;;8.15;6.22;;;19.90;70.70;;;;;;5073236;28;20040;-11
2022/09/03 06:26:12;;;;;;;7.25;5.70;;;19.90;70.10;;;;;;5073142;28;20075;-11
2022/09/03 06:28:42;;;;;;;8.20;5.07;;;19.90;70.00;;;;;;5073143;28;20028;-12
2022/09/03 06:31:11;;;;;;;9.15;5.68;;;20.00;69.40;;;;;;5073177;28;20107;-11
2022/09/03 06:33:38;;;;;;;9.45;6.22;;;20.00;69.30;;;;;;5073349;28;20491;-11
2022/09/03 06:36:10;;;;;;;5.75;4.80;;;20.10;69.60;;;;;;5072576;28;20458;-11
2022/09/03 06:38:37;;;;;;;9.05;5.18;;;20.20;69.50;;;;;;5072935;28;20032;-12
2022/09/03 06:41:11;;;;;;;8.60;6.25;;;20.30;69.30;;;;;;5072773;28;20036;-11
2022/09/03 06:43:41;;;;;;;7.43;5.85;;;20.40;68.30;;;;;;5072894;28;20460;-11
2022/09/03 06:46:12;;;;;;;9.82;5.78;;;20.50;67.70;;;;;;5072934;28;20078;-11
2022/09/03 06:48:39;;;;;;;6.13;4.70;;;20.70;67.90;;;;;;5073163;28;20508;-12
2022/09/03 06:51:12;;;;;;;8.68;5.47;;;20.90;67.80;;;;;;5073031;28;20032;-11
2022/09/03 06:53:40;;;;;;;7.45;5.40;;;21.10;64.80;;;;;;5073114;28;20097;-11
2022/09/03 06:56:09;;;;;;;6.97;4.50;;;21.40;66.00;;;;;;5073178;28;20028;-11
2022/09/03 06:58:39;;;;;;;5.82;4.65;;;21.50;65.10;;;;;;5071870;28;20480;-11
2022/09/03 07:01:27;;;;;;;7.07;4.82;;;21.80;64.70;;;;;;5072410;28;20049;-12
2022/09/03 07:03:59;;;;;;;6.70;4.70;;;21.90;62.80;;;;;;5073172;28;20037;-11
2022/09/03 07:06:28;;;;;;;7.22;4.43;;;22.10;62.30;;;;;;5073151;28;20017;-12
2022/09/03 07:08:58;;;;;;;5.30;4.22;;;22.40;62.40;;;;;;5072419;28;20033;-11
2022/09/03 07:11:28;;;;;;;7.90;4.18;;;22.50;61.30;;;;;;5072987;28;20153;-11
2022/09/03 07:13:54;;;;;;;7.22;4.60;;;22.70;60.50;;;;;;5072664;28;20085;-11
2022/09/03 07:16:23;;;;;;;6.03;3.80;;;22.80;59.70;;;;;;5072792;28;20025;-11
2022/09/03 07:18:49;;;;;;;4.80;3.55;;;22.90;60.10;;;;;;5072947;28;20024;-11
2022/09/03 07:21:24;;;;;;;5.68;4.00;;;23.00;59.30;;;;;;5072885;28;20067;-11
2022/09/03 07:23:52;;;;;;;6.28;3.85;;;23.20;58.20;;;;;;5073331;28;20032;-11
2022/09/03 07:26:21;;;;;;;6.40;4.05;;;23.40;58.40;;;;;;5072802;28;20388;-11
2022/09/03 07:28:48;;;;;;;9.65;3.80;;;23.50;55.80;;;;;;5072588;28;20032;-11
2022/09/03 07:31:18;;;;;;;4.40;3.60;;;23.60;57.80;;;;;;5072976;28;20020;-10
2022/09/03 07:33:46;;;;;;;7.55;3.53;;;23.80;57.50;;;;;;5073016;28;20067;-11
2022/09/03 07:36:16;;;;;;;6.45;3.67;;;24.00;56.90;;;;;;5072759;28;20028;-12
2022/09/03 07:38:43;;;;;;;6.45;3.78;;;24.20;55.20;;;;;;5072652;28;20024;-11
2022/09/03 07:41:11;;;;;;;5.18;3.60;;;24.20;55.20;;;;;;5071001;28;20025;-10
2022/09/03 07:43:39;;;;;;;5.90;4.00;;;24.40;55.00;;;;;;5072265;28;20443;-11
2022/09/03 07:46:07;;;;;;;4.78;3.50;;;24.50;55.10;;;;;;5072616;28;20021;-11
2022/09/03 07:48:33;;;;;;;4.55;3.33;;;24.70;54.80;;;;;;5074037;28;20028;-11
2022/09/03 07:51:00;;;;;;;5.68;3.50;;;24.90;54.90;;;;;;5075858;28;20507;-11
2022/09/03 07:53:27;;;;;;;3.78;3.03;;;25.00;52.90;;;;;;5075886;28;20530;-12
2022/09/03 07:56:00;;;;;;;5.22;3.33;;;25.10;54.20;;;;;;5075748;28;20380;-11
2022/09/03 07:58:28;;;;;;;5.15;3.30;;;25.40;53.80;;;;;;5076117;28;20025;-10
2022/09/03 08:00:56;;;;;;;6.43;3.40;;;25.50;53.70;;;;;;5075365;28;20385;-11
2022/09/03 08:03:22;;;;;;;4.70;3.42;;;25.50;52.20;;;;;;5075584;28;20024;-10
2022/09/03 08:05:48;;;;;;;6.30;3.45;;;25.50;53.10;;;;;;5076694;28;20021;-11
2022/09/03 08:08:14;;;;;;;4.40;2.53;;;25.70;53.10;;;;;;5075837;28;20032;-11
2022/09/03 08:10:40;;;;;;;3.75;2.85;;;25.90;53.20;;;;;;5075742;28;20361;-11
2022/09/03 08:13:06;;;;;;;3.10;2.70;;;26.10;52.20;;;;;;5075647;28;20585;-11
2022/09/03 08:15:33;;;;;;;4.55;3.08;;;26.40;52.40;;;;;;5075483;28;20037;-11
2022/09/03 08:18:00;;;;;;;5.15;3.30;;;26.60;51.30;;;;;;5075765;28;20020;-10
2022/09/03 08:20:27;;;;;;;3.72;2.80;;;26.80;51.00;;;;;;5074373;28;20021;-10
2022/09/03 08:23:00;;;;;;;4.78;2.80;;;26.90;50.90;;;;;;5075419;28;20029;-10
2022/09/03 08:25:26;;;;;;;5.15;2.97;;;27.10;50.30;;;;;;5075194;28;20123;-12
2022/09/03 08:27:52;;;;;;;3.25;2.90;;;27.30;50.10;;;;;;5075274;28;20103;-11
2022/09/03 08:30:20;;;;;;;4.50;3.38;;;27.50;50.00;;;;;;5075365;28;20107;-11
2022/09/03 08:32:46;;;;;;;3.30;2.95;;;27.70;48.30;;;;;;5075410;28;20431;-11
2022/09/03 08:35:12;;;;;;;6.05;3.00;;;27.70;48.40;;;;;;5075118;28;20028;-12
2022/09/03 08:37:38;;;;;;;3.35;2.90;;;27.80;48.90;;;;;;5073811;28;20028;-11
2022/09/03 08:40:06;;;;;;;4.32;2.90;;;27.90;48.60;;;;;;5075451;28;20024;-11
2022/09/03 08:42:56;;;;;;;3.60;2.72;;;28.20;47.80;;;;;;5075729;28;20104;-11
2022/09/03 08:45:23;;;;;;;4.38;2.90;;;28.50;46.90;;;;;;5075087;28;20036;-11
2022/09/03 08:48:00;;;;;;;5.60;3.30;;;28.50;47.20;;;;;;5075079;28;20016;-11
2022/09/03 08:50:39;;;;;;;9.00;3.35;;;28.50;46.80;;;;;;5075111;28;20016;-12
2022/09/03 08:53:23;;;;;;;6.13;3.00;;;28.50;47.50;;;;;;5074566;28;20392;-11
2022/09/03 08:56:32;;;;;;;4.47;2.70;;;28.40;47.10;;;;;;5073456;28;20082;-11
2022/09/03 08:59:00;;;;;;;3.05;2.45;;;28.40;47.80;;;;;;5072404;28;20480;-10
2022/09/03 09:01:50;;;;;;;2.70;2.40;;;28.40;48.40;;;;;;5072034;28;20150;-11
2022/09/03 09:04:42;;;;;;;4.05;2.80;;;28.70;47.60;;;;;;5072498;28;20440;-11
2022/09/03 09:07:26;;;;;;;5.35;3.05;;;29.10;47.50;;;;;;5064150;28;20612;-11
2022/09/03 09:10:39;;;;;;;3.45;2.70;;;29.40;45.90;;;;;;5072318;28;20047;-10
2022/09/03 09:13:26;;;;;;;3.45;2.58;;;29.70;46.40;;;;;;5072185;28;20021;-11
2022/09/03 09:16:12;;;;;;;3.08;2.50;;;30.00;46.40;;;;;;5072328;28;20111;-12
2022/09/03 09:18:53;;;;;;;4.35;3.20;;;30.50;44.70;;;;;;5071650;28;20036;-11
2022/09/03 09:21:48;;;;;;;3.08;2.55;;;30.60;44.10;;;;;;5072890;28;20110;-11
2022/09/03 09:24:27;;;;;;;3.80;2.80;;;30.70;42.70;;;;;;5072160;28;20451;-11
2022/09/03 09:26:59;;;;;;;3.80;2.60;;;30.90;43.00;;;;;;5072670;28;20039;-11
2022/09/03 09:29:32;;;;;;;4.05;2.88;;;30.90;43.40;;;;;;5072066;28;20420;-11
2022/09/03 09:31:58;;;;;;;;;;;30.90;43.80;;;;;;5072751;28;20086;-11
2022/09/03 09:34:24;;;;;;;4.10;2.75;;;30.80;41.30;;;;;;5071959;28;19908;-11
2022/09/03 09:36:53;;;;;;;5.13;2.70;;;30.70;43.40;;;;;;5073667;28;20025;-11
2022/09/03 09:39:20;;;;;;;3.88;2.50;;;30.70;43.80;;;;;;5073812;28;20488;-12
2022/09/03 09:41:59;;;;;;;3.45;2.90;;;30.90;43.80;;;;;;5074000;28;20085;-11
2022/09/03 09:44:26;;;;;;;3.65;2.58;;;31.00;43.30;;;;;;5073656;28;20032;-10
2022/09/03 09:47:03;;;;;;;3.83;2.80;;;31.20;43.10;;;;;;5073505;28;20112;-11
2022/09/03 09:49:52;;;;;;;6.13;2.65;;;31.20;42.70;;;;;;5073723;28;20021;-11
2022/09/03 09:52:20;;;;;;;2.85;2.53;;;31.10;43.00;;;;;;5071582;28;20094;-11
2022/09/03 09:54:46;;;;;;;5.45;3.33;;;31.10;43.40;;;;;;5071526;28;20070;-10
2022/09/03 09:57:24;;;;;;;3.72;2.70;;;31.00;42.60;;;;;;5071564;28;20036;-11
2022/09/03 10:00:13;;;;;;;3.08;2.63;;;30.90;41.10;;;;;;5071262;28;20060;-11
2022/09/03 10:02:48;;;;;;;3.05;2.40;;;31.00;41.30;;;;;;5071208;28;20557;-10
2022/09/03 10:05:25;;;;;;;4.95;2.58;;;31.10;41.90;;;;;;5071916;28;20056;-11
2022/09/03 10:08:06;;;;;;;4.25;2.55;;;31.20;41.80;;;;;;5071756;28;20100;-11
2022/09/03 10:10:43;;;;;;;3.65;2.88;;;31.30;41.20;;;;;;5071257;28;20047;-11
2022/09/03 10:13:31;;;;;;;3.53;2.50;;;31.50;39.90;;;;;;5071085;28;20020;-12
2022/09/03 10:16:01;;;;;;;4.50;2.72;;;31.60;40.20;;;;;;5070808;28;20059;-11
2022/09/03 10:18:33;;;;;;;6.00;2.55;;;31.70;40.30;;;;;;5071358;28;20025;-11
2022/09/03 10:21:23;;;;;;;5.63;3.20;;;31.60;40.40;;;;;;5070959;28;20037;-11
2022/09/03 10:24:04;;;;;;;6.07;3.00;;;31.60;40.60;;;;;;5071103;28;20067;-11
2022/09/03 10:26:31;;;;;;;5.75;2.90;;;31.60;41.00;;;;;;5071153;28;20025;-11
2022/09/03 10:29:04;;;;;;;5.53;3.03;;;31.60;41.00;;;;;;5071548;28;20037;-11
2022/09/03 10:32:21;;;;;;;3.20;2.85;;;31.60;40.30;;;;;;5073134;28;20515;-11
2022/09/03 10:35:23;;;;;;;4.43;2.65;;;31.80;38.90;;;;;;5072991;28;20146;-11
2022/09/03 10:38:08;;;;;;;3.33;2.72;;;32.10;39.40;;;;;;5073058;28;20035;-11
2022/09/03 10:40:40;;;;;;;5.57;2.90;;;32.40;38.80;;;;;;5073121;28;20451;-12
2022/09/03 10:43:36;;;;;;;4.55;3.03;;;32.50;39.30;;;;;;5072696;28;20569;-12
2022/09/03 10:46:10;;;;;;;5.55;2.83;;;32.90;38.90;;;;;;5073320;28;20036;-11
2022/09/03 10:49:07;;;;;;;6.15;2.90;;;33.20;38.80;;;;;;5073096;28;20380;-11
2022/09/03 10:51:42;;;;;;;2.83;2.58;;;33.40;38.50;;;;;;5072907;28;20483;-11
2022/09/03 10:54:19;;;;;;;7.32;2.58;;;33.70;36.70;;;;;;5073143;28;20133;-11
2022/09/03 10:56:59;;;;;;;3.22;2.25;;;34.20;36.40;;;;;;5073218;28;20044;-11
2022/09/03 10:59:45;;;;;;;3.42;2.63;;;34.40;36.10;;;;;;5072679;28;20440;-11
2022/09/03 11:02:35;;;;;;;5.07;2.42;;;34.70;34.60;;;;;;5072771;28;20507;-11
2022/09/03 11:05:07;;;;;;;3.88;3.05;;;35.10;34.80;;;;;;5072650;28;20036;-11
2022/09/03 11:07:51;;;;;;;2.65;2.30;;;35.30;33.60;;;;;;5073205;28;20028;-10
2022/09/03 11:10:31;;;;;;;3.38;2.20;;;35.30;34.10;;;;;;5073295;28;20047;-11
2022/09/03 11:12:57;;;;;;;3.05;2.22;;;35.40;33.20;;;;;;5072491;28;20036;-11
2022/09/03 11:15:37;;;;;;;3.05;2.17;;;35.70;33.60;;;;;;5072671;28;20025;-10
2022/09/03 11:18:19;;;;;;;2.47;2.20;;;36.00;33.20;;;;;;5072681;28;20111;-11
2022/09/03 11:20:48;;;;;;;2.33;2.10;;;36.40;32.70;;;;;;5072672;28;20027;-11
2022/09/03 11:23:18;;;;;;;3.17;2.25;;;36.60;32.50;;;;;;5073655;28;20045;-11
2022/09/03 11:25:55;;;;;;;4.13;2.20;;;36.80;32.40;;;;;;5076575;28;20085;-10
2022/09/03 11:28:32;;;;;;;2.72;2.40;;;36.70;32.20;;;;;;5076427;28;20035;-11
2022/09/03 11:31:17;;;;;;;2.92;2.38;;;36.50;31.80;;;;;;5076445;28;20021;-11
2022/09/03 11:34:08;;;;;;;3.35;2.30;;;36.50;32.10;;;;;;5076287;28;20103;-11
2022/09/03 11:36:37;;;;;;;3.47;2.15;;;36.60;30.10;;;;;;5076010;28;20037;-11
2022/09/03 11:39:22;;;;;;;2.35;2.15;;;36.70;31.80;;;;;;5076214;28;20060;-11
2022/09/03 11:42:06;;;;;;;2.47;2.20;;;37.00;31.00;;;;;;5076123;28;20028;-10
2022/09/03 11:44:37;;;;;;;2.88;2.47;;;36.90;30.10;;;;;;5076146;28;20031;-11
2022/09/03 11:47:21;;;;;;;2.20;2.00;;;36.50;31.00;;;;;;5075829;28;20044;-11
2022/09/03 11:49:50;;;;;;;4.28;2.30;;;36.00;32.30;;;;;;5076036;28;20029;-11
2022/09/03 11:52:27;;;;;;;5.75;2.40;;;35.80;33.20;;;;;;5075774;28;20082;-11
2022/09/03 11:54:53;;;;;;;3.15;2.10;;;36.00;33.00;;;;;;5075575;28;20040;-11
2022/09/03 11:57:29;;;;;;;3.33;2.10;;;36.50;31.80;;;;;;5076107;28;20021;-11
2022/09/03 12:00:10;;;;;;;2.70;2.20;;;36.90;31.50;;;;;;5076074;28;20408;-10
2022/09/03 12:02:40;;;;;;;2.15;1.90;;;36.90;31.00;;;;;;5076013;28;20028;-11
2022/09/03 12:05:19;;;;;;;2.75;1.90;;;37.00;31.50;;;;;;5075455;28;20025;-11
2022/09/03 12:08:12;;;;;;;4.63;2.20;;;37.10;31.40;;;;;;5074515;28;20033;-11
2022/09/03 12:11:08;;;;;;;4.03;2.50;;;37.40;28.70;;;;;;5075500;28;20036;-11
2022/09/03 12:13:47;;;;;;;2.33;2.13;;;36.90;31.60;;;;;;5075614;28;20032;-11
2022/09/03 12:16:40;;;;;;;2.88;2.20;;;36.80;31.10;;;;;;5075588;28;20035;-10
2022/09/03 12:19:29;;;;;;;3.22;2.17;;;37.10;30.50;;;;;;5075319;28;20028;-11
2022/09/03 12:21:56;;;;;;;3.15;2.20;;;37.50;30.30;;;;;;5071315;28;20028;-11
2022/09/03 12:24:32;;;;;;;2.35;2.15;;;37.80;30.00;;;;;;5075592;28;20036;-11
2022/09/03 12:26:59;;;;;;;2.58;1.90;;;38.10;30.00;;;;;;5075149;28;20050;-11
2022/09/03 12:29:27;;;;;;;4.10;2.30;;;38.50;30.10;;;;;;5075255;28;20035;-12
2022/09/03 12:31:55;;;;;;;2.15;1.90;;;38.50;29.90;;;;;;5075809;28;20020;-11
2022/09/03 12:34:23;;;;;;;3.00;2.08;;;38.30;30.40;;;;;;5074955;28;20060;-10
2022/09/03 12:36:51;;;;;;;3.67;2.47;;;38.00;30.50;;;;;;5074793;28;20028;-11
2022/09/03 12:39:29;;;;;;;3.70;2.30;;;37.70;30.80;;;;;;5075330;28;20028;-11
2022/09/03 12:41:56;;;;;;;2.53;2.10;;;37.50;31.40;;;;;;5074936;28;20078;-11
2022/09/03 12:44:31;;;;;;;3.50;2.40;;;37.40;30.90;;;;;;5073685;28;20089;-11
2022/09/03 12:47:08;;;;;;;5.72;2.40;;;37.10;30.90;;;;;;5075093;28;20032;-10
2022/09/03 12:49:38;;;;;;;4.53;2.40;;;36.70;31.50;;;;;;5075493;28;20078;-12
2022/09/03 12:52:22;;;;;;;3.38;2.15;;;36.50;32.10;;;;;;5075141;28;20074;-11
2022/09/03 12:55:26;;;;;;;3.30;2.10;;;36.80;31.30;;;;;;5074539;28;20024;-11
2022/09/03 12:58:01;;;;;;;2.53;2.13;;;37.30;30.90;;;;;;5074030;28;20519;-12
2022/09/03 13:00:30;;;;;;;2.08;1.90;;;37.70;30.40;;;;;;5074432;28;20490;-12
2022/09/03 13:03:07;;;;;;;2.67;2.00;;;38.00;30.20;;;;;;5074442;28;20120;-11
2022/09/03 13:05:41;;;;;;;4.40;2.30;;;38.00;30.50;;;;;;5075213;28;20047;-11
2022/09/03 13:08:13;;;;;;;2.53;2.20;;;37.80;30.90;;;;;;5074534;28;20028;-12
2022/09/03 13:10:41;;;;;;;3.37;2.20;;;37.50;30.90;;;;;;5074456;28;20060;-11
2022/09/03 13:13:31;;;;;;;4.72;2.50;;;37.20;31.60;;;;;;5074574;28;20044;-11
2022/09/03 13:16:21;;;;;;;5.25;2.45;;;37.00;31.30;;;;;;5074965;28;20100;-11
2022/09/03 13:19:01;;;;;;;3.85;2.50;;;36.70;31.50;;;;;;5074236;28;20025;-12
2022/09/03 13:21:27;;;;;;;3.28;2.50;;;36.60;31.90;;;;;;5074229;28;20077;-13